createdAt,value
2018-10-02T00:01:23.488Z,83.26
2018-10-02T00:03:51.872Z,83.38
2018-10-02T00:06:21.239Z,83.81
2018-10-02T00:08:49.596Z,83.94
2018-10-02T00:11:23.349Z,83.74
2018-10-02T00:13:56.869Z,83.93
2018-10-02T00:16:26.309Z,83.39
2018-10-02T00:18:54.665Z,82.35
2018-10-02T00:21:23.008Z,81.94
2018-10-02T00:23:51.379Z,81.85
2018-10-02T00:26:21.793Z,81.55
2018-10-02T00:28:50.171Z,82.01
2018-10-02T00:31:19.813Z,81.93
2018-10-02T00:33:49.250Z,81.02
2018-10-02T00:36:17.599Z,80.73
2018-10-02T00:38:47.048Z,80.77
2018-10-02T00:41:15.434Z,81.40
2018-10-02T00:43:43.766Z,81.92
2018-10-02T00:46:12.183Z,80.34
2018-10-02T00:48:40.500Z,80.89
2018-10-02T00:51:08.856Z,82.13
2018-10-02T00:53:37.260Z,82.87
2018-10-02T00:56:05.672Z,82.92
2018-10-02T00:58:34.108Z,83.17
2018-10-02T01:01:02.745Z,83.13
2018-10-02T01:03:32.205Z,83.02
2018-10-02T01:06:00.549Z,83.34
2018-10-02T01:08:29.947Z,83.75
2018-10-02T01:10:58.316Z,83.42
2018-10-02T01:13:26.649Z,83.45
2018-10-02T01:15:55.008Z,83.17
2018-10-02T01:18:23.361Z,83.36
2018-10-02T01:20:51.708Z,82.86
2018-10-02T01:23:21.140Z,81.91
2018-10-02T01:25:49.620Z,81.87
2018-10-02T01:28:17.949Z,82.40
2018-10-02T01:30:46.316Z,82.26
2018-10-02T01:33:15.732Z,82.08
2018-10-02T01:35:44.143Z,82.26
2018-10-02T01:38:12.483Z,81.57
2018-10-02T01:40:40.842Z,82.03
2018-10-02T01:43:09.213Z,81.86
2018-10-02T01:45:37.593Z,81.14
2018-10-02T01:48:06.018Z,81.18
2018-10-02T01:50:36.476Z,81.42
2018-10-02T01:53:04.817Z,81.17
2018-10-02T01:55:33.180Z,81.07
2018-10-02T01:58:01.633Z,80.56
2018-10-02T02:00:29.994Z,80.41
2018-10-02T02:02:58.367Z,80.11
2018-10-02T02:05:26.748Z,80.21
2018-10-02T02:07:56.129Z,79.54
2018-10-02T02:10:24.482Z,79.34
2018-10-02T02:12:52.836Z,79.39
2018-10-02T02:15:21.200Z,79.30
2018-10-02T02:17:49.656Z,79.20
2018-10-02T02:20:19.056Z,79.09
2018-10-02T02:22:47.381Z,78.74
2018-10-02T02:25:16.901Z,78.98
2018-10-02T02:27:45.253Z,78.79
2018-10-02T02:30:13.585Z,79.32
2018-10-02T02:32:42.018Z,79.43
2018-10-02T02:35:10.385Z,80.00
2018-10-02T02:37:38.725Z,79.17
2018-10-02T02:40:07.129Z,79.90
2018-10-02T02:42:38.997Z,80.13
2018-10-02T02:45:07.397Z,80.17
2018-10-02T02:47:41.045Z,79.93
2018-10-02T02:50:14.631Z,79.83
2018-10-02T02:52:47.380Z,79.98
2018-10-02T02:55:15.753Z,80.79
2018-10-02T02:57:46.117Z,80.43
2018-10-02T03:00:14.957Z,80.91
2018-10-02T03:02:43.325Z,81.05
2018-10-02T03:05:11.697Z,81.43
2018-10-02T03:07:40.081Z,81.33
2018-10-02T03:10:08.449Z,81.73
2018-10-02T03:12:36.804Z,82.34
2018-10-02T03:15:05.300Z,82.30
2018-10-02T03:17:33.655Z,82.56
2018-10-02T03:20:01.988Z,82.53
2018-10-02T03:22:30.338Z,82.67
2018-10-02T03:24:58.691Z,82.82
2018-10-02T03:27:27.199Z,82.75
2018-10-02T03:29:55.549Z,82.40
2018-10-02T03:32:23.887Z,81.75
2018-10-02T03:34:52.224Z,81.86
2018-10-02T03:37:20.585Z,81.59
2018-10-02T03:39:49.051Z,81.71
2018-10-02T03:42:17.436Z,81.80
2018-10-02T03:44:45.762Z,81.94
2018-10-02T03:47:14.128Z,82.42
2018-10-02T03:49:42.481Z,81.87
2018-10-02T03:52:10.845Z,82.78
2018-10-02T03:54:39.177Z,82.60
2018-10-02T03:57:08.634Z,83.03
2018-10-02T03:59:36.983Z,82.56
2018-10-02T04:02:05.322Z,81.71
2018-10-02T04:04:33.759Z,82.12
2018-10-02T04:07:02.132Z,81.99
2018-10-02T04:09:30.488Z,82.40
2018-10-02T04:11:58.902Z,82.37
2018-10-02T04:14:27.283Z,83.04
2018-10-02T04:16:55.646Z,82.40
2018-10-02T04:19:23.976Z,81.67
2018-10-02T04:21:52.324Z,82.54
2018-10-02T04:24:20.661Z,82.83
2018-10-02T04:26:49.009Z,82.72
2018-10-02T04:29:17.381Z,82.55
2018-10-02T04:31:45.808Z,82.42
2018-10-02T04:34:14.210Z,82.91
2018-10-02T04:36:42.524Z,82.63
2018-10-02T04:39:10.992Z,83.24
2018-10-02T04:41:39.356Z,83.24
2018-10-02T04:44:07.684Z,83.93
2018-10-02T04:46:36.357Z,84.93
2018-10-02T04:49:04.741Z,84.60
2018-10-02T04:51:33.072Z,84.16
2018-10-02T04:54:01.529Z,84.21
2018-10-02T04:56:29.876Z,83.55
2018-10-02T04:58:58.211Z,84.00
2018-10-02T05:01:26.556Z,83.94
2018-10-02T05:03:54.832Z,84.17
2018-10-02T05:06:23.202Z,84.16
2018-10-02T05:08:52.684Z,85.00
2018-10-02T05:11:21.534Z,85.10
2018-10-02T05:13:49.901Z,84.75
2018-10-02T05:16:18.247Z,84.38
2018-10-02T05:18:46.572Z,84.81
2018-10-02T05:21:14.940Z,84.01
2018-10-02T05:23:43.240Z,84.35
2018-10-02T05:26:11.550Z,85.48
2018-10-02T05:28:40.068Z,85.06
2018-10-02T05:31:08.403Z,85.13
2018-10-02T05:33:36.785Z,83.99
2018-10-02T05:36:05.100Z,84.83
2018-10-02T05:38:33.404Z,85.18
2018-10-02T05:41:01.737Z,85.01
2018-10-02T05:43:30.036Z,85.80
2018-10-02T05:45:58.355Z,85.91
2018-10-02T05:48:26.688Z,86.28
2018-10-02T05:50:55.008Z,86.34
2018-10-02T05:53:23.316Z,85.01
2018-10-02T05:55:51.632Z,85.04
2018-10-02T05:58:19.994Z,85.92
2018-10-02T06:00:48.339Z,85.69
2018-10-02T06:03:16.644Z,86.12
2018-10-02T06:05:44.967Z,85.43
2018-10-02T06:08:13.288Z,86.07
2018-10-02T06:10:42.100Z,85.66
2018-10-02T06:13:10.420Z,85.13
2018-10-02T06:15:38.731Z,86.34
2018-10-02T06:18:07.163Z,86.03
2018-10-02T06:20:35.409Z,86.79
2018-10-02T06:23:03.793Z,86.49
2018-10-02T06:25:32.132Z,87.56
2018-10-02T06:28:00.498Z,87.86
2018-10-02T06:30:28.889Z,87.48
2018-10-02T06:32:57.872Z,87.74
2018-10-02T06:35:27.276Z,86.97
2018-10-02T06:37:55.678Z,86.73
2018-10-02T06:40:23.993Z,85.64
2018-10-02T06:42:52.324Z,86.56
2018-10-02T06:45:20.685Z,86.45
2018-10-02T06:47:49.033Z,85.46
2018-10-02T06:50:17.369Z,85.87
2018-10-02T06:52:45.857Z,85.84
2018-10-02T06:55:14.155Z,85.54
2018-10-02T06:57:43.514Z,85.24
2018-10-02T07:00:11.854Z,84.05
2018-10-02T07:02:40.346Z,84.13
2018-10-02T07:05:09.684Z,83.56
2018-10-02T07:07:38.034Z,83.08
2018-10-02T07:10:07.556Z,82.50
2018-10-02T07:12:35.941Z,81.72
2018-10-02T07:15:05.263Z,80.76
2018-10-02T07:17:33.616Z,81.08
2018-10-02T07:20:01.928Z,81.14
2018-10-02T07:22:30.276Z,80.11
2018-10-02T07:24:58.649Z,79.68
2018-10-02T07:27:27.557Z,79.79
2018-10-02T07:29:55.861Z,79.05
2018-10-02T07:32:26.268Z,78.98
2018-10-02T07:34:54.580Z,79.43
2018-10-02T07:37:23.922Z,79.35
2018-10-02T07:39:52.252Z,79.98
2018-10-02T07:42:20.737Z,79.16
2018-10-02T07:44:48.944Z,78.55
2018-10-02T07:47:17.317Z,78.62
2018-10-02T07:49:45.993Z,77.14
2018-10-02T07:52:14.388Z,77.23
2018-10-02T07:54:42.708Z,78.46
2018-10-02T07:57:11.105Z,78.04
2018-10-02T07:59:39.438Z,77.88
2018-10-02T08:02:08.420Z,78.81
2018-10-02T08:04:36.860Z,78.61
2018-10-02T08:07:07.325Z,79.27
2018-10-02T08:09:35.709Z,78.16
2018-10-02T08:12:04.150Z,78.11
2018-10-02T08:14:32.533Z,79.71
2018-10-02T08:17:00.843Z,79.93
2018-10-02T08:19:29.220Z,81.46
2018-10-02T08:21:57.602Z,83.30
2018-10-02T08:24:25.950Z,85.45
2018-10-02T08:26:54.365Z,87.22
2018-10-02T08:29:22.791Z,86.68
2018-10-02T08:31:51.092Z,87.24
2018-10-02T08:34:19.542Z,88.96
2018-10-02T08:36:47.861Z,88.95
2018-10-02T08:39:17.274Z,89.75
2018-10-02T08:42:48.640Z,88.98
2018-10-02T08:45:16.996Z,89.55
2018-10-02T08:47:45.345Z,89.31
2018-10-02T08:50:13.725Z,89.67
2018-10-02T08:52:42.272Z,89.92
2018-10-02T08:55:10.608Z,90.81
2018-10-02T08:57:38.960Z,90.24
2018-10-02T09:00:07.605Z,89.61
2018-10-02T09:02:35.948Z,90.75
2018-10-02T09:05:04.325Z,89.48
2018-10-02T09:07:32.798Z,88.82
2018-10-02T09:10:01.127Z,88.61
2018-10-02T09:12:30.528Z,89.97
2018-10-02T09:14:59.950Z,89.71
2018-10-02T09:17:28.280Z,89.54
2018-10-02T09:19:56.608Z,88.42
2018-10-02T09:22:25.065Z,90.05
2018-10-02T09:24:53.527Z,89.79
2018-10-02T09:27:23.018Z,90.01
2018-10-02T09:29:56.459Z,91.08
2018-10-02T09:32:32.208Z,91.35
2018-10-02T09:35:06.662Z,90.56
2018-10-02T09:37:40.377Z,91.51
2018-10-02T09:40:13.870Z,91.41
2018-10-02T09:42:47.619Z,91.10
2018-10-02T09:45:15.994Z,91.10
2018-10-02T09:47:46.401Z,90.14
2018-10-02T09:50:16.869Z,90.37
2018-10-02T09:52:45.310Z,88.97
2018-10-02T09:55:14.692Z,88.54
2018-10-02T09:57:43.061Z,88.47
2018-10-02T10:00:16.845Z,88.10
2018-10-02T10:02:45.360Z,87.74
2018-10-02T10:05:13.600Z,88.04
2018-10-02T10:07:41.954Z,89.01
2018-10-02T10:10:10.307Z,88.26
2018-10-02T10:12:38.660Z,88.09
2018-10-02T10:15:07.106Z,88.64
2018-10-02T10:17:35.460Z,88.99
2018-10-02T10:20:04.870Z,89.24
2018-10-02T10:22:34.295Z,89.41
2018-10-02T10:25:03.751Z,90.49
2018-10-02T10:27:32.109Z,91.55
2018-10-02T10:30:01.598Z,92.85
2018-10-02T10:32:30.010Z,93.70
2018-10-02T10:34:58.520Z,94.55
2018-10-02T10:37:26.971Z,94.87
2018-10-02T10:39:55.360Z,93.48
2018-10-02T10:42:23.773Z,92.97
2018-10-02T10:44:52.169Z,94.94
2018-10-02T10:47:20.544Z,95.18
2018-10-02T10:49:49.356Z,94.06
2018-10-02T10:52:17.761Z,94.05
2018-10-02T10:54:58.416Z,95.16
2018-10-02T10:57:29.006Z,94.82
2018-10-02T10:59:57.369Z,94.50
2018-10-02T11:02:25.701Z,93.91
2018-10-02T11:04:55.185Z,93.87
2018-10-02T11:07:23.521Z,93.48
2018-10-02T11:09:54.057Z,93.25
2018-10-02T11:12:23.408Z,93.87
2018-10-02T11:14:51.730Z,94.51
2018-10-02T11:17:20.161Z,93.48
2018-10-02T11:19:48.521Z,93.70
2018-10-02T11:22:17.960Z,93.12
2018-10-02T11:24:46.431Z,93.66
2018-10-02T11:27:14.776Z,93.41
2018-10-02T11:29:43.186Z,93.31
2018-10-02T11:32:11.508Z,92.72
2018-10-02T11:34:39.876Z,93.31
2018-10-02T11:37:08.321Z,93.46
2018-10-02T11:39:36.665Z,93.90
2018-10-02T11:42:05.224Z,93.43
2018-10-02T11:44:34.684Z,95.52
2018-10-02T11:47:03.101Z,95.43
2018-10-02T11:49:31.575Z,95.78
2018-10-02T11:52:01.023Z,96.65
2018-10-02T11:54:29.394Z,96.16
2018-10-02T11:56:59.310Z,96.10
2018-10-02T11:59:27.686Z,96.82
2018-10-02T12:01:56.129Z,97.16
2018-10-02T12:04:24.535Z,97.20
2018-10-02T12:06:53.940Z,96.51
2018-10-02T12:09:22.321Z,97.93
2018-10-02T12:11:56.329Z,97.47
2018-10-02T12:14:24.990Z,97.06
2018-10-02T12:16:53.181Z,96.93
2018-10-02T12:19:22.661Z,98.59
2018-10-02T12:21:51.065Z,98.95
2018-10-02T12:24:19.522Z,98.22
2018-10-02T12:26:47.873Z,98.23
2018-10-02T12:29:17.337Z,98.39
2018-10-02T12:31:45.721Z,98.01
2018-10-02T12:34:15.226Z,96.53
2018-10-02T12:36:43.724Z,95.19
2018-10-02T12:39:12.122Z,94.42
2018-10-02T12:41:44.149Z,92.17
2018-10-02T12:44:12.504Z,90.75
2018-10-02T12:46:40.860Z,89.03
2018-10-02T12:49:09.353Z,89.30
2018-10-02T12:51:37.740Z,89.87
2018-10-02T12:54:08.209Z,91.52
2018-10-02T12:56:36.625Z,91.06
2018-10-02T12:59:05.024Z,91.88
2018-10-02T13:01:33.428Z,91.97
2018-10-02T13:04:01.813Z,90.01
2018-10-02T13:06:33.998Z,88.62
2018-10-02T13:09:03.592Z,87.24
2018-10-02T13:11:34.121Z,88.85
2018-10-02T13:14:02.539Z,89.54
2018-10-02T13:16:31.233Z,89.20
2018-10-02T13:18:59.639Z,88.81
2018-10-02T13:21:28.097Z,88.85
2018-10-02T13:23:56.542Z,86.56
2018-10-02T13:26:24.941Z,81.92
2018-10-02T13:28:53.297Z,78.80
2018-10-02T13:31:22.827Z,76.85
2018-10-02T13:33:51.221Z,75.94
2018-10-02T13:36:19.650Z,77.59
2018-10-02T13:38:48.173Z,76.24
2018-10-02T13:41:16.669Z,76.50
2018-10-02T13:43:45.209Z,74.68
2018-10-02T13:46:13.582Z,74.56
2018-10-02T13:48:43.040Z,75.15
2018-10-02T13:51:11.510Z,72.09
2018-10-02T13:53:39.875Z,73.97
2018-10-02T13:56:08.246Z,72.49
2018-10-02T13:58:36.625Z,71.74
2018-10-02T14:01:05.013Z,71.11
2018-10-02T14:03:33.388Z,70.10
2018-10-02T14:07:04.458Z,70.29
2018-10-02T14:09:32.889Z,68.36
2018-10-02T14:12:01.315Z,67.50
2018-10-02T14:14:29.725Z,67.00
2018-10-02T14:16:58.092Z,66.23
2018-10-02T14:19:26.461Z,66.08
2018-10-02T14:21:54.914Z,64.00
2018-10-02T14:24:23.245Z,64.83
2018-10-02T14:26:51.617Z,64.45
2018-10-02T14:29:20.017Z,63.66
2018-10-02T14:31:48.409Z,63.53
2018-10-02T14:34:16.730Z,61.93
2018-10-02T14:36:45.166Z,61.98
2018-10-02T14:39:13.457Z,60.22
2018-10-02T14:41:41.828Z,59.03
2018-10-02T14:44:12.220Z,58.81
2018-10-02T14:46:41.577Z,58.73
2018-10-02T14:49:09.919Z,59.38
2018-10-02T14:51:38.264Z,59.47
2018-10-02T14:54:07.600Z,59.41
2018-10-02T14:56:35.960Z,59.15
2018-10-02T14:59:04.346Z,58.37
2018-10-02T15:01:34.796Z,59.20
2018-10-02T15:04:03.149Z,59.92
2018-10-02T15:06:31.484Z,61.50
2018-10-02T15:08:59.812Z,61.53
2018-10-02T15:11:28.146Z,62.35
2018-10-02T15:13:56.488Z,61.87
2018-10-02T15:16:24.841Z,53.37
2018-10-02T15:18:53.221Z,49.76
2018-10-02T15:21:21.599Z,47.80
2018-10-02T15:23:49.953Z,46.35
2018-10-02T15:26:18.409Z,48.74
2018-10-02T15:28:46.768Z,48.78
2018-10-02T15:31:15.122Z,47.42
2018-10-02T15:33:43.733Z,49.60
2018-10-02T15:36:12.172Z,55.99
2018-10-02T15:38:40.580Z,59.01
2018-10-02T15:41:10.041Z,59.98
2018-10-02T15:43:39.501Z,57.08
2018-10-02T15:46:07.934Z,55.91
2018-10-02T15:48:36.339Z,58.67
2018-10-02T15:51:04.814Z,59.42
2018-10-02T15:53:33.133Z,58.90
2018-10-02T15:56:01.586Z,59.06
2018-10-02T15:58:29.965Z,60.45
2018-10-02T16:00:58.313Z,61.40
2018-10-02T16:03:26.718Z,61.83
2018-10-02T16:05:55.101Z,62.31
2018-10-02T16:08:23.553Z,62.92
2018-10-02T16:10:51.949Z,64.72
2018-10-02T16:13:20.368Z,66.57
2018-10-02T16:15:48.675Z,66.37
2018-10-02T16:18:17.036Z,66.93
2018-10-02T16:20:45.385Z,65.22
2018-10-02T16:23:13.731Z,64.49
2018-10-02T16:25:42.091Z,62.70
2018-10-02T16:28:10.441Z,62.16
2018-10-02T16:30:39.909Z,62.55
2018-10-02T16:33:08.244Z,62.47
2018-10-02T16:35:36.589Z,62.19
2018-10-02T16:38:05.002Z,61.92
2018-10-02T16:40:33.379Z,62.82
2018-10-02T16:43:01.718Z,62.23
2018-10-02T16:45:30.188Z,63.16
2018-10-02T16:47:58.555Z,63.39
2018-10-02T16:50:27.948Z,63.73
2018-10-02T16:52:56.402Z,64.05
2018-10-02T16:55:24.789Z,61.89
2018-10-02T16:57:53.248Z,62.45
2018-10-02T17:00:21.804Z,61.71
2018-10-02T17:02:50.196Z,62.21
2018-10-02T17:05:18.600Z,62.02
2018-10-02T17:07:46.933Z,62.05
2018-10-02T17:10:15.308Z,62.26
2018-10-02T17:12:43.689Z,62.82
2018-10-02T17:15:13.069Z,63.05
2018-10-02T17:17:42.448Z,63.53
2018-10-02T17:20:10.769Z,63.88
2018-10-02T17:22:39.121Z,64.25
2018-10-02T17:25:07.468Z,64.39
2018-10-02T17:27:35.805Z,64.63
2018-10-02T17:30:04.224Z,64.85
2018-10-02T17:32:32.656Z,65.12
2018-10-02T17:35:00.997Z,65.71
2018-10-02T17:37:30.620Z,65.86
2018-10-02T17:39:59.027Z,66.52
2018-10-02T17:42:27.584Z,66.27
2018-10-02T17:44:55.997Z,66.50
2018-10-02T17:47:24.428Z,66.58
2018-10-02T17:49:53.832Z,66.88
2018-10-02T17:52:22.195Z,67.13
2018-10-02T17:54:50.552Z,66.76
2018-10-02T17:57:18.832Z,66.72
2018-10-02T17:59:47.159Z,67.33
2018-10-02T18:02:15.476Z,67.62
2018-10-02T18:04:43.844Z,67.55
2018-10-02T18:07:12.287Z,67.78
2018-10-02T18:09:40.697Z,68.27
2018-10-02T18:12:09.188Z,68.58
2018-10-02T18:14:37.533Z,69.13
2018-10-02T18:17:05.941Z,68.93
2018-10-02T18:19:35.407Z,69.37
2018-10-02T18:22:03.752Z,69.54
2018-10-02T18:24:32.099Z,69.31
2018-10-02T18:27:00.420Z,69.39
2018-10-02T18:29:28.727Z,69.07
2018-10-02T18:31:58.084Z,69.23
2018-10-02T18:34:26.456Z,68.28
2018-10-02T18:36:54.789Z,68.02
2018-10-02T18:39:23.112Z,68.26
2018-10-02T18:41:51.438Z,68.13
2018-10-02T18:44:19.805Z,68.52
2018-10-02T18:46:48.137Z,68.72
2018-10-02T18:49:16.577Z,68.92
2018-10-02T18:51:45.523Z,67.81
2018-10-02T18:54:17.870Z,67.38
2018-10-02T18:56:46.261Z,66.29
2018-10-02T18:59:14.434Z,65.26
2018-10-02T19:01:42.734Z,64.79
2018-10-02T19:04:11.033Z,64.43
2018-10-02T19:06:39.322Z,63.92
2018-10-02T19:09:14.703Z,64.26
2018-10-02T19:11:49.214Z,64.36
2018-10-02T19:14:18.417Z,64.96
2018-10-02T19:16:47.409Z,65.11
2018-10-02T19:19:20.970Z,65.16
2018-10-02T19:21:49.373Z,65.88
2018-10-02T19:24:17.721Z,66.18
2018-10-02T19:26:46.104Z,66.84
2018-10-02T19:29:14.448Z,67.69
2018-10-02T19:31:48.182Z,68.21
2018-10-02T19:34:16.524Z,68.68
2018-10-02T19:36:44.865Z,69.88
2018-10-02T19:39:15.845Z,70.28
2018-10-02T19:41:44.194Z,70.76
2018-10-02T19:44:12.525Z,71.17
2018-10-02T19:46:45.953Z,71.47
2018-10-02T19:49:14.346Z,70.86
2018-10-02T19:51:49.816Z,71.48
2018-10-02T19:54:18.161Z,74.52
2018-10-02T19:56:46.521Z,76.20
2018-10-02T19:59:14.886Z,77.12
2018-10-02T20:01:43.229Z,76.19
2018-10-02T20:04:11.639Z,76.68
2018-10-02T20:06:40.027Z,76.81
2018-10-02T20:09:09.145Z,76.98
2018-10-02T20:11:37.516Z,76.55
2018-10-02T20:14:05.911Z,75.91
2018-10-02T20:16:34.487Z,75.30
2018-10-02T20:19:06.463Z,74.66
2018-10-02T20:21:35.417Z,74.36
2018-10-02T20:24:03.778Z,82.07
2018-10-02T20:26:32.284Z,68.98
2018-10-02T20:29:00.977Z,72.56
2018-10-02T20:31:30.467Z,73.38
2018-10-02T20:33:58.832Z,74.73
2018-10-02T20:36:27.219Z,74.77
2018-10-02T20:38:55.562Z,74.92
2018-10-02T20:41:23.928Z,75.15
2018-10-02T20:43:52.309Z,74.94
2018-10-02T20:46:20.657Z,74.05
2018-10-02T20:48:49.021Z,74.26
2018-10-02T20:51:17.369Z,74.30
2018-10-02T20:53:45.725Z,74.64
2018-10-02T20:56:14.109Z,74.94
2018-10-02T20:58:42.494Z,72.76
2018-10-02T21:01:10.877Z,71.99
2018-10-02T21:03:39.838Z,71.24
2018-10-02T21:06:08.185Z,71.56
2018-10-02T21:08:36.585Z,71.92
2018-10-02T21:11:05.019Z,72.74
2018-10-02T21:13:33.384Z,73.36
2018-10-02T21:16:01.717Z,75.03
2018-10-02T21:18:30.109Z,75.50
2018-10-02T21:20:59.548Z,76.27
2018-10-02T21:23:28.016Z,75.63
2018-10-02T21:25:57.999Z,75.79
2018-10-02T21:28:27.461Z,75.29
2018-10-02T21:30:55.828Z,75.48
2018-10-02T21:33:24.209Z,74.92
2018-10-02T21:35:52.559Z,75.09
2018-10-02T21:38:20.913Z,74.42
2018-10-02T21:40:50.376Z,74.42
2018-10-02T21:43:18.730Z,73.77
2018-10-02T21:45:47.076Z,72.08
2018-10-02T21:48:16.536Z,72.03
2018-10-02T21:50:45.940Z,71.67
2018-10-02T21:53:15.344Z,72.19
2018-10-02T21:55:43.692Z,72.29
2018-10-02T21:58:12.054Z,72.52
2018-10-02T22:00:40.393Z,73.03
2018-10-02T22:03:08.769Z,73.46
2018-10-02T22:05:37.121Z,73.70
2018-10-02T22:08:06.499Z,73.91
2018-10-02T22:10:34.829Z,73.80
2018-10-02T22:13:04.164Z,74.15
2018-10-02T22:15:32.626Z,74.46
2018-10-02T22:18:00.880Z,75.26
2018-10-02T22:20:29.220Z,76.25
2018-10-02T22:22:57.571Z,76.01
2018-10-02T22:25:25.891Z,75.50
2018-10-02T22:27:54.246Z,73.82
2018-10-02T22:30:22.596Z,73.87
2018-10-02T22:32:50.945Z,73.86
2018-10-02T22:35:19.305Z,72.74
2018-10-02T22:37:47.673Z,71.63
2018-10-02T22:40:16.021Z,71.30
2018-10-02T22:42:44.380Z,70.48
2018-10-02T22:45:12.721Z,70.06
2018-10-02T22:47:41.064Z,69.50
2018-10-02T22:50:09.419Z,69.10
2018-10-02T22:52:37.770Z,69.64
2018-10-02T22:55:06.145Z,70.37
2018-10-02T22:57:34.505Z,71.01
2018-10-02T23:00:02.856Z,70.62
2018-10-02T23:02:31.208Z,71.43
2018-10-02T23:04:59.544Z,71.84
2018-10-02T23:07:27.941Z,72.35
2018-10-02T23:09:57.473Z,72.66
2018-10-02T23:12:25.845Z,73.01
2018-10-02T23:14:54.194Z,73.53
2018-10-02T23:17:22.581Z,74.09
2018-10-02T23:19:50.968Z,74.60
2018-10-02T23:22:19.334Z,75.68
2018-10-02T23:24:47.663Z,76.58
2018-10-02T23:27:16.030Z,77.03
2018-10-02T23:29:45.496Z,77.58
2018-10-02T23:32:13.890Z,77.00
2018-10-02T23:34:42.348Z,77.21
2018-10-02T23:37:10.846Z,77.26
2018-10-02T23:39:39.317Z,77.49
2018-10-02T23:42:07.761Z,77.49
2018-10-02T23:44:36.220Z,77.04
2018-10-02T23:47:04.753Z,77.00
2018-10-02T23:49:34.218Z,76.38
2018-10-02T23:52:02.571Z,75.44
2018-10-02T23:54:31.063Z,75.28
2018-10-02T23:56:59.514Z,74.98
2018-10-02T23:59:28.921Z,74.99
